Southside, Tennessee
Current Conditions -  °F | °C
As of 11:52 PM on Wednesday 28 Jan 2015 (Local Time) from KCKV Reporting Station
Clear Clear  
Wind Chill: 39°   Ceiling: Unl
Heat Index: 43°   Visibility: 10mi
Dew Point: 28°   Wind: 7mph
Humidity: 56%   Direction: 160°SSE
Pressure: 30.07"   Gusts: NA
Location:  36.37°N, 87.3°W
Report Text: KCKV 290552Z AUTO 16006KT 10SM CLR 06/M02 A3007 RMK AO2 SLP184 T00611022 10067 20039 400941017 58015
Loading
Personal Weather Stations






























Interactive Weather Map New forecast layout! Learn more

10-Day Weather Forecast

Advertisements
Track Severe Weather on mobile